Decoded Metar for LYBT (BELGRADE BATAJNICA in SERBIA) (IATA:N/A) | Meteo·Mobile Aviation Weather
aviador You're here:

LYBT Decoded Metar

BELGRADE BATAJNICA in SERBIA
Report Time2020-02-25 21:00:00
UTC Time2020-02-25 21:25:35
Flight Rules vfr VFR
Wind180° at 03 kt
W.Decomp.*RWY 12: 1.7 kt HW 2.5 kt RCW
Visibility9999 m
Phenomena:N/A
Clouds:N/A
Expected CloudBase > 1,600 ft AGL from Temp-Dew spread
CeilingNone
Temp05°C (ISA -9)
Dew Point01°C (76% RH)
AAT2.1°C
QNH1005 hPa
Density Alt-518 ft
Elevation262 ft
Report Wrong Elevation
Raw Report
METAR LYBT 252100Z 18003KT CAVOK 05/01 Q1005 NOSIG=

Extra information for LYBT:More info

Metar Taf Metar & Taf Last 4 Metars F.Rules Stats Wind Profile Meteogram Temp Stats Airport Information Weather charts Add Link Nearby VenuesMetar ALERT Operation Metar Decoded Social comments